Time;durP1;ratioP1;P1;durP2;ratioP2;P2;SDS_P1;SDS_P2;PMS_P1;PMS_P2;Temp;Humidity;BMP_temperature;BMP_pressure;BME280_temperature;BME280_humidity;BME280_pressure;Samples;Min_cycle;Max_cycle;Signal;HPM_P1;HPM_P2
2022/04/03 00:00:29;;;;;;;1.30;1.30;;;17.00;61.70;;;;;;5108698;27;44017;-72
2022/04/03 00:02:57;;;;;;;1.40;1.40;;;16.90;61.90;;;;;;5108791;27;43392;-73
2022/04/03 00:05:25;;;;;;;1.57;1.57;;;16.80;62.00;;;;;;5108471;27;43968;-71
2022/04/03 00:07:53;;;;;;;1.40;1.40;;;16.80;62.10;;;;;;5108616;27;44054;-71
2022/04/03 00:10:21;;;;;;;1.37;1.37;;;16.70;62.20;;;;;;5108695;27;43959;-72
2022/04/03 00:12:49;;;;;;;1.40;1.40;;;16.70;62.40;;;;;;5089876;27;43896;-72
2022/04/03 00:15:18;;;;;;;1.37;1.37;;;16.70;62.50;;;;;;5089762;27;46999;-72
2022/04/03 00:17:46;;;;;;;1.40;1.40;;;16.60;63.20;;;;;;5089550;27;44644;-73
2022/04/03 00:20:14;;;;;;;1.50;1.50;;;16.70;63.70;;;;;;5108154;27;43346;-72
2022/04/03 00:22:43;;;;;;;1.50;1.50;;;16.80;63.10;;;;;;5108195;27;43800;-73
2022/04/03 00:25:12;;;;;;;1.40;1.40;;;17.00;62.70;;;;;;5094621;27;44785;-73
2022/04/03 00:27:40;;;;;;;1.37;1.37;;;16.90;62.10;;;;;;5095219;27;43931;-72
2022/04/03 00:30:09;;;;;;;1.30;1.30;;;16.90;61.90;;;;;;5095651;27;43993;-72
2022/04/03 00:32:38;;;;;;;1.50;1.50;;;16.80;61.90;;;;;;5098068;27;43404;-72
2022/04/03 00:35:07;;;;;;;1.40;1.40;;;16.80;62.10;;;;;;5099140;27;45126;-71
2022/04/03 00:37:34;;;;;;;1.20;1.20;;;16.70;62.20;;;;;;5111764;27;43489;-72
2022/04/03 00:40:03;;;;;;;1.20;1.20;;;16.70;62.30;;;;;;5111892;27;43401;-72
2022/04/03 00:42:33;;;;;;;1.33;1.33;;;16.70;62.40;;;;;;5092919;27;43909;-72
2022/04/03 00:45:01;;;;;;;1.50;1.50;;;16.60;62.50;;;;;;5112222;27;43882;-71
2022/04/03 00:47:29;;;;;;;1.20;1.20;;;16.60;62.50;;;;;;5111776;27;43932;-72
2022/04/03 00:49:59;;;;;;;1.50;1.50;;;16.60;62.60;;;;;;5111025;27;43968;-72
2022/04/03 00:52:27;;;;;;;1.20;1.20;;;16.60;62.70;;;;;;5111744;27;44074;-72
2022/04/03 00:54:55;;;;;;;1.33;1.33;;;16.60;62.70;;;;;;5110773;27;44038;-72
2022/04/03 00:57:23;;;;;;;1.40;1.40;;;16.60;63.10;;;;;;5111512;27;43978;-72
2022/04/03 00:59:51;;;;;;;1.60;1.60;;;16.60;63.50;;;;;;5111625;27;44005;-71
2022/04/03 01:02:19;;;;;;;1.27;1.27;;;16.80;63.40;;;;;;5111892;27;43893;-71
2022/04/03 01:04:47;;;;;;;1.40;1.40;;;17.00;62.90;;;;;;5111276;27;43950;-71
2022/04/03 01:07:19;;;;;;;1.37;1.37;;;17.10;62.40;;;;;;5111571;27;44014;-72
2022/04/03 01:09:47;;;;;;;1.33;1.33;;;17.20;62.00;;;;;;5111067;27;43761;-72
2022/04/03 01:12:16;;;;;;;1.40;1.40;;;17.20;61.40;;;;;;5093240;27;43959;-72
2022/04/03 01:15:05;;;;;;;1.50;1.50;;;17.10;61.20;;;;;;5111495;27;43841;-72
2022/04/03 01:17:33;;;;;;;1.40;1.40;;;17.00;61.40;;;;;;5092041;27;44348;-72
2022/04/03 01:20:02;;;;;;;1.20;1.20;;;16.90;61.60;;;;;;5111259;27;43962;-72
2022/04/03 01:22:31;;;;;;;1.27;1.27;;;16.80;61.80;;;;;;5111813;27;43807;-72
2022/04/03 01:25:00;;;;;;;1.30;1.30;;;16.80;62.00;;;;;;5111692;27;44351;-72
2022/04/03 01:27:28;;;;;;;1.40;1.40;;;16.70;62.10;;;;;;5110823;27;43955;-72
2022/04/03 01:29:57;;;;;;;1.33;1.33;;;16.70;62.30;;;;;;5111712;27;44186;-72
2022/04/03 01:32:25;;;;;;;1.40;1.40;;;16.60;62.30;;;;;;5111432;27;43937;-71
2022/04/03 01:34:53;;;;;;;1.50;1.50;;;16.60;62.40;;;;;;5111365;27;43880;-72
2022/04/03 01:37:21;;;;;;;1.43;1.43;;;16.60;62.60;;;;;;5093743;27;45590;-71
2022/04/03 01:39:49;;;;;;;1.40;1.40;;;16.60;63.40;;;;;;5093081;27;44041;-72
2022/04/03 01:42:18;;;;;;;1.20;1.20;;;16.80;63.30;;;;;;5092523;27;43990;-72
2022/04/03 01:44:46;;;;;;;1.33;1.33;;;16.90;62.90;;;;;;5091980;27;47459;-73
2022/04/03 01:47:14;;;;;;;1.60;1.60;;;16.90;62.20;;;;;;5110673;27;44067;-73
2022/04/03 01:49:42;;;;;;;1.50;1.50;;;16.90;61.90;;;;;;5110760;27;43434;-72
2022/04/03 01:52:10;;;;;;;1.30;1.30;;;16.80;61.80;;;;;;5111604;27;43371;-72
2022/04/03 01:54:38;;;;;;;1.30;1.30;;;16.70;61.90;;;;;;5091929;27;47056;-71
2022/04/03 01:57:06;;;;;;;1.40;1.40;;;16.70;62.20;;;;;;5110637;27;43946;-72
2022/04/03 01:59:36;;;;;;;1.50;1.50;;;16.70;63.10;;;;;;5110747;27;43394;-71
2022/04/03 02:02:04;;;;;;;1.30;1.30;;;16.60;62.40;;;;;;5111334;27;43294;-72
2022/04/03 02:04:33;;;;;;;1.30;1.30;;;16.60;62.50;;;;;;5110565;27;43978;-72
2022/04/03 02:07:03;;;;;;;1.50;1.50;;;16.60;62.60;;;;;;5092332;27;44039;-72
2022/04/03 02:09:31;;;;;;;1.60;1.60;;;16.60;62.70;;;;;;5110911;27;44013;-72
2022/04/03 02:11:59;;;;;;;1.27;1.27;;;16.60;62.70;;;;;;5111536;27;44001;-72
2022/04/03 02:14:27;;;;;;;1.37;1.37;;;16.50;62.70;;;;;;5110402;27;43975;-71
2022/04/03 02:16:58;;;;;;;1.50;1.50;;;16.50;62.70;;;;;;5110573;27;43386;-71
2022/04/03 02:19:26;;;;;;;1.40;1.40;;;16.50;63.50;;;;;;5097535;27;43330;-72
2022/04/03 02:21:54;;;;;;;1.30;1.30;;;16.60;63.50;;;;;;5098087;27;43991;-73
2022/04/03 02:24:22;;;;;;;1.33;1.33;;;16.80;63.20;;;;;;5097289;27;45116;-73
2022/04/03 02:26:51;;;;;;;1.40;1.40;;;17.00;62.80;;;;;;5097601;27;43751;-71
2022/04/03 02:29:19;;;;;;;1.30;1.30;;;17.10;62.30;;;;;;5110577;27;43997;-72
2022/04/03 02:31:47;;;;;;;1.60;1.60;;;17.10;61.80;;;;;;5097545;27;44007;-72
2022/04/03 02:34:17;;;;;;;1.30;1.30;;;17.10;61.50;;;;;;5091678;27;45976;-72
2022/04/03 02:36:45;;;;;;;1.20;1.20;;;17.00;61.40;;;;;;5111036;27;44085;-72
2022/04/03 02:39:13;;;;;;;1.30;1.30;;;16.90;61.60;;;;;;5110595;27;43947;-72
2022/04/03 02:41:41;;;;;;;1.27;1.27;;;16.80;61.70;;;;;;5091995;27;43959;-72
2022/04/03 02:44:09;;;;;;;1.50;1.50;;;16.70;62.00;;;;;;5109461;27;43958;-71
2022/04/03 02:46:38;;;;;;;1.30;1.30;;;16.60;62.20;;;;;;5090766;27;45421;-72
2022/04/03 02:49:08;;;;;;;1.40;1.40;;;16.60;62.30;;;;;;5109873;27;44058;-72
2022/04/03 02:51:37;;;;;;;1.30;1.30;;;16.60;62.50;;;;;;5091469;27;44115;-72
2022/04/03 02:54:05;;;;;;;1.40;1.40;;;16.60;62.60;;;;;;5108855;27;43896;-72
2022/04/03 02:56:33;;;;;;;1.47;1.47;;;16.50;62.50;;;;;;5087339;28;45703;-72
2022/04/03 02:59:02;;;;;;;1.30;1.30;;;16.50;62.70;;;;;;5089469;27;44010;-72
2022/04/03 03:01:30;;;;;;;1.40;1.40;;;16.50;63.50;;;;;;5088259;28;43522;-72
2022/04/03 03:03:58;;;;;;;1.40;1.40;;;16.60;63.20;;;;;;5089456;28;44009;-71
2022/04/03 03:06:26;;;;;;;1.40;1.40;;;16.80;63.00;;;;;;5088310;28;44983;-71
2022/04/03 03:08:55;;;;;;;1.30;1.30;;;16.80;62.30;;;;;;5090325;28;43879;-72
2022/04/03 03:11:23;;;;;;;1.43;1.43;;;16.80;61.90;;;;;;5088134;28;43837;-72
2022/04/03 03:13:51;;;;;;;1.30;1.30;;;16.80;61.90;;;;;;5089451;28;43661;-72
2022/04/03 03:16:19;;;;;;;1.50;1.50;;;16.70;61.90;;;;;;5089750;28;43446;-71
2022/04/03 03:18:47;;;;;;;1.20;1.20;;;16.70;62.00;;;;;;5089961;28;43799;-69
2022/04/03 03:21:15;;;;;;;1.40;1.40;;;16.70;62.10;;;;;;5089916;28;43352;-72
2022/04/03 03:23:43;;;;;;;1.40;1.40;;;16.60;62.20;;;;;;5088597;28;44867;-71
2022/04/03 03:26:13;;;;;;;1.50;1.50;;;16.60;62.20;;;;;;5088828;28;43944;-72
2022/04/03 03:28:41;;;;;;;1.70;1.60;;;16.60;62.20;;;;;;5089048;28;43914;-72
2022/04/03 03:31:08;;;;;;;1.80;1.80;;;16.60;62.20;;;;;;5089622;28;43502;-72
2022/04/03 03:33:36;;;;;;;3.03;2.23;;;16.60;62.30;;;;;;5088724;27;43992;-72
2022/04/03 03:36:05;;;;;;;3.37;2.40;;;16.60;62.40;;;;;;5090034;28;44052;-71
2022/04/03 03:38:33;;;;;;;3.43;2.70;;;16.60;62.60;;;;;;5087856;28;43976;-72
2022/04/03 03:41:01;;;;;;;5.93;3.47;;;16.60;63.40;;;;;;5089203;28;43947;-71
2022/04/03 03:43:30;;;;;;;5.20;2.80;;;16.70;63.20;;;;;;5089742;28;44454;-71
2022/04/03 03:45:58;;;;;;;5.73;3.23;;;16.90;62.90;;;;;;5087673;28;44877;-72
2022/04/03 03:48:26;;;;;;;6.17;3.47;;;17.10;62.30;;;;;;5087748;28;43889;-72
2022/04/03 03:50:55;;;;;;;4.13;3.30;;;17.20;62.00;;;;;;5090953;28;43831;-72
2022/04/03 03:53:23;;;;;;;5.93;3.17;;;17.20;61.50;;;;;;5089480;28;45016;-71
2022/04/03 03:55:51;;;;;;;3.77;3.07;;;17.10;61.10;;;;;;5101142;27;44034;-72
2022/04/03 03:58:19;;;;;;;8.20;3.47;;;17.00;61.10;;;;;;5090275;27;43382;-72
2022/04/03 04:00:49;;;;;;;4.47;3.40;;;16.90;61.30;;;;;;5090166;27;43428;-72
2022/04/03 04:03:17;;;;;;;4.83;3.23;;;16.80;61.50;;;;;;5108319;27;43943;-72
2022/04/03 04:05:45;;;;;;;4.13;3.37;;;16.80;61.80;;;;;;5090080;27;44479;-72
2022/04/03 04:08:13;;;;;;;3.63;3.17;;;16.70;61.90;;;;;;5112130;27;44034;-72
2022/04/03 04:10:41;;;;;;;6.30;3.57;;;16.70;62.10;;;;;;5094262;27;43951;-72
2022/04/03 04:13:09;;;;;;;5.10;3.47;;;16.60;62.10;;;;;;5112713;27;43778;-71
2022/04/03 04:15:37;;;;;;;5.13;2.93;;;16.60;62.20;;;;;;5112362;27;43920;-73
2022/04/03 04:18:07;;;;;;;5.23;3.20;;;16.60;62.30;;;;;;5113671;27;43537;-72
2022/04/03 04:20:36;;;;;;;5.10;3.00;;;16.60;63.20;;;;;;5113056;27;43514;-72
2022/04/03 04:23:04;;;;;;;4.47;3.30;;;16.70;63.30;;;;;;5113790;27;44020;-72
2022/04/03 04:25:32;;;;;;;6.17;3.30;;;16.80;62.80;;;;;;5093962;27;44388;-72
2022/04/03 04:28:00;;;;;;;3.73;3.23;;;16.80;62.20;;;;;;5113024;27;44032;-72
2022/04/03 04:30:28;;;;;;;4.47;3.40;;;16.80;61.80;;;;;;5112598;27;43952;-71
2022/04/03 04:32:55;;;;;;;4.77;3.17;;;16.80;61.70;;;;;;5113093;27;45138;-71
2022/04/03 04:35:25;;;;;;;4.33;3.30;;;16.70;61.80;;;;;;5112600;27;43377;-72
2022/04/03 04:37:53;;;;;;;6.30;3.63;;;16.70;62.70;;;;;;5113291;27;43619;-72
2022/04/03 04:40:20;;;;;;;3.37;3.10;;;16.60;62.10;;;;;;5113054;27;43538;-73
2022/04/03 04:42:49;;;;;;;3.53;3.23;;;16.60;62.20;;;;;;5112834;27;43989;-72
2022/04/03 04:45:17;;;;;;;3.83;3.50;;;16.60;62.30;;;;;;5093517;27;44647;-72
2022/04/03 04:47:45;;;;;;;4.20;3.20;;;16.60;62.50;;;;;;5094634;27;43458;-72
2022/04/03 04:50:14;;;;;;;3.40;3.20;;;16.50;62.40;;;;;;5112596;27;44207;-72
2022/04/03 04:52:43;;;;;;;3.83;3.40;;;16.50;62.40;;;;;;5112730;27;44813;-72
2022/04/03 04:55:11;;;;;;;3.17;2.90;;;16.50;63.20;;;;;;5112592;27;43990;-72
2022/04/03 04:57:39;;;;;;;3.10;2.90;;;16.50;62.50;;;;;;5112767;27;43400;-72
2022/04/03 05:00:09;;;;;;;5.87;3.33;;;16.50;63.30;;;;;;5094467;27;43601;-72
2022/04/03 05:02:37;;;;;;;3.30;3.00;;;16.60;63.30;;;;;;5093376;27;46391;-72
2022/04/03 05:05:05;;;;;;;2.97;2.77;;;16.80;63.00;;;;;;5093425;27;44741;-72
2022/04/03 05:07:34;;;;;;;3.63;3.33;;;17.00;62.50;;;;;;5112091;27;43379;-71
2022/04/03 05:10:04;;;;;;;3.67;3.10;;;17.10;62.00;;;;;;5113208;27;43503;-71
2022/04/03 05:12:36;;;;;;;3.80;3.37;;;17.10;61.60;;;;;;5103533;27;43839;-71
2022/04/03 05:15:06;;;;;;;3.90;3.37;;;17.00;61.10;;;;;;5112208;27;44283;-71
2022/04/03 05:17:34;;;;;;;3.40;3.20;;;16.90;61.10;;;;;;5111566;27;43920;-72
2022/04/03 05:20:03;;;;;;;2.97;2.77;;;16.90;61.40;;;;;;5112522;27;43481;-71
2022/04/03 05:22:31;;;;;;;3.00;2.80;;;16.80;61.50;;;;;;5111900;27;43906;-72
2022/04/03 05:24:59;;;;;;;5.10;3.00;;;16.70;61.60;;;;;;5112370;27;43424;-72
2022/04/03 05:27:28;;;;;;;2.93;2.73;;;16.70;61.90;;;;;;5093674;27;43988;-72
2022/04/03 05:29:57;;;;;;;2.83;2.70;;;16.60;61.90;;;;;;5111349;27;43902;-72
2022/04/03 05:32:26;;;;;;;3.27;2.97;;;16.60;62.10;;;;;;5111076;27;44578;-72
2022/04/03 05:34:55;;;;;;;2.70;2.60;;;16.60;62.20;;;;;;5111533;27;43374;-72
2022/04/03 05:37:23;;;;;;;3.03;2.83;;;16.60;62.30;;;;;;5112034;27;43406;-72
2022/04/03 05:39:51;;;;;;;2.90;2.60;;;16.60;63.10;;;;;;5093277;27;44194;-72
2022/04/03 05:42:19;;;;;;;3.23;3.00;;;16.60;63.30;;;;;;5093279;27;45712;-72
2022/04/03 05:44:49;;;;;;;2.90;2.80;;;16.70;63.00;;;;;;5112127;27;43845;-72
2022/04/03 05:47:17;;;;;;;3.23;3.03;;;16.80;62.30;;;;;;5112456;27;43441;-72
2022/04/03 05:49:45;;;;;;;3.20;2.90;;;16.80;61.80;;;;;;5112324;27;43381;-72
2022/04/03 05:52:13;;;;;;;2.90;2.70;;;16.80;61.70;;;;;;5111255;27;43865;-72
2022/04/03 05:54:41;;;;;;;2.93;2.83;;;16.70;61.80;;;;;;5110614;27;44123;-73
2022/04/03 05:57:10;;;;;;;2.90;2.70;;;16.70;62.00;;;;;;5111945;27;43545;-71
2022/04/03 05:59:38;;;;;;;2.73;2.53;;;16.60;62.10;;;;;;5112585;27;44009;-72
2022/04/03 06:02:08;;;;;;;2.73;2.53;;;16.60;62.20;;;;;;5111006;27;43927;-72
2022/04/03 06:04:36;;;;;;;2.70;2.60;;;16.60;62.30;;;;;;5111055;27;43331;-72
2022/04/03 06:07:04;;;;;;;3.10;2.90;;;16.50;62.30;;;;;;5111246;27;43373;-72
2022/04/03 06:09:32;;;;;;;2.87;2.67;;;16.50;62.40;;;;;;5092832;27;43597;-72
2022/04/03 06:12:00;;;;;;;2.53;2.37;;;16.50;62.40;;;;;;5111150;27;43943;-72
2022/04/03 06:14:28;;;;;;;2.93;2.73;;;16.50;62.50;;;;;;5111173;27;43919;-72
2022/04/03 06:16:56;;;;;;;2.87;2.73;;;16.50;62.50;;;;;;5111603;27;43928;-73
2022/04/03 06:19:25;;;;;;;3.07;2.83;;;16.50;63.10;;;;;;5094300;27;44226;-72
2022/04/03 06:21:53;;;;;;;2.80;2.67;;;16.60;63.30;;;;;;5066407;28;46150;-72
2022/04/03 06:24:21;;;;;;;2.97;2.80;;;16.70;63.00;;;;;;5097143;27;44742;-71
2022/04/03 06:26:49;;;;;;;2.50;2.40;;;16.90;62.60;;;;;;5098453;27;43927;-72
2022/04/03 06:29:17;;;;;;;2.90;2.70;;;17.00;62.10;;;;;;5078944;27;44170;-72
2022/04/03 06:31:45;;;;;;;2.80;2.60;;;17.00;61.80;;;;;;5079153;27;46237;-73
2022/04/03 06:34:13;;;;;;;2.67;2.53;;;17.00;61.20;;;;;;5097637;27;44032;-72
2022/04/03 06:36:42;;;;;;;2.73;2.63;;;16.90;61.20;;;;;;5098223;27;43469;-71
2022/04/03 06:39:10;;;;;;;2.40;2.30;;;16.80;61.40;;;;;;5098907;27;44371;-71
2022/04/03 06:41:39;;;;;;;2.53;2.43;;;16.80;61.70;;;;;;5097699;27;43944;-72
2022/04/03 06:44:07;;;;;;;2.57;2.37;;;16.70;61.80;;;;;;5110824;27;43363;-72
2022/04/03 06:46:35;;;;;;;2.67;2.57;;;16.60;62.00;;;;;;5110540;27;43902;-71
2022/04/03 06:49:03;;;;;;;2.73;2.63;;;16.60;62.10;;;;;;5080093;27;43448;-71
2022/04/03 06:51:31;;;;;;;2.57;2.47;;;16.50;62.10;;;;;;5097652;27;45127;-72
2022/04/03 06:54:00;;;;;;;2.53;2.43;;;16.50;62.30;;;;;;5098246;27;43999;-72
2022/04/03 06:56:28;;;;;;;2.37;2.20;;;16.50;62.30;;;;;;5098273;27;43975;-72
2022/04/03 06:58:56;;;;;;;3.03;2.83;;;16.50;62.70;;;;;;5093142;27;43600;-72
2022/04/03 07:01:24;;;;;;;2.73;2.53;;;16.50;63.30;;;;;;5093122;27;46909;-71
2022/04/03 07:03:52;;;;;;;2.70;2.60;;;16.60;63.20;;;;;;5092897;27;45680;-73
2022/04/03 07:06:20;;;;;;;2.50;2.30;;;16.80;62.80;;;;;;5092897;27;44054;-73
2022/04/03 07:08:48;;;;;;;2.17;2.07;;;16.80;62.10;;;;;;5092990;27;44018;-72
2022/04/03 07:11:18;;;;;;;2.50;2.40;;;16.80;61.90;;;;;;5091705;27;46057;-72
2022/04/03 07:13:46;;;;;;;2.20;2.10;;;16.70;61.90;;;;;;5110449;27;43326;-71
2022/04/03 07:16:14;;;;;;;2.33;2.23;;;16.70;62.00;;;;;;5109815;27;43872;-72
2022/04/03 07:18:42;;;;;;;2.60;2.50;;;16.60;62.20;;;;;;5110864;27;43901;-72
2022/04/03 07:21:10;;;;;;;2.60;2.50;;;16.60;62.30;;;;;;5110056;27;43916;-72
2022/04/03 07:23:38;;;;;;;1.90;1.90;;;16.50;62.30;;;;;;5110078;27;43965;-71
2022/04/03 07:26:07;;;;;;;2.40;2.30;;;16.50;62.50;;;;;;5110717;27;43884;-72
2022/04/03 07:28:36;;;;;;;2.67;2.57;;;16.50;62.60;;;;;;5110228;27;44060;-71
2022/04/03 07:31:04;;;;;;;2.00;2.00;;;16.50;62.50;;;;;;5109694;27;43971;-72
2022/04/03 07:33:32;;;;;;;2.50;2.40;;;16.40;62.50;;;;;;5091528;27;44462;-72
2022/04/03 07:36:00;;;;;;;2.17;2.07;;;16.40;62.50;;;;;;5110432;27;43904;-72
2022/04/03 07:38:28;;;;;;;2.07;1.97;;;16.40;62.60;;;;;;5110995;27;43959;-72
2022/04/03 07:40:55;;;;;;;2.40;2.30;;;16.40;63.20;;;;;;5110963;27;43941;-72
2022/04/03 07:43:25;;;;;;;2.27;2.20;;;16.50;63.30;;;;;;5110095;27;43846;-72
2022/04/03 07:45:54;;;;;;;2.30;2.20;;;16.70;63.00;;;;;;5091941;27;44368;-71
2022/04/03 07:48:22;;;;;;;2.20;2.20;;;16.90;62.70;;;;;;5110333;27;44011;-72
2022/04/03 07:50:51;;;;;;;2.30;2.20;;;17.00;62.10;;;;;;5110550;27;43908;-73
2022/04/03 07:53:19;;;;;;;2.10;2.00;;;17.10;61.80;;;;;;5109916;27;43434;-72
2022/04/03 07:55:47;;;;;;;2.50;2.40;;;17.00;61.20;;;;;;5109492;27;43405;-72
2022/04/03 07:58:15;;;;;;;2.40;2.30;;;16.90;61.10;;;;;;5110629;27;44000;-72
2022/04/03 08:00:43;;;;;;;2.40;2.30;;;16.80;61.30;;;;;;5109635;27;43977;-73
2022/04/03 08:03:13;;;;;;;2.07;1.97;;;16.80;61.60;;;;;;5109430;27;43392;-72
2022/04/03 08:05:41;;;;;;;2.10;2.10;;;16.70;61.80;;;;;;5091130;27;43891;-71
2022/04/03 08:08:09;;;;;;;2.10;2.10;;;16.60;61.90;;;;;;5109811;27;43370;-72
2022/04/03 08:10:37;;;;;;;2.10;2.03;;;16.60;62.10;;;;;;5109422;27;44024;-72
2022/04/03 08:13:05;;;;;;;2.40;2.30;;;16.60;62.20;;;;;;5108658;27;43955;-71
2022/04/03 08:15:33;;;;;;;2.07;2.07;;;16.50;62.20;;;;;;5109170;27;43419;-72
2022/04/03 08:18:01;;;;;;;1.83;1.73;;;16.50;62.40;;;;;;5109892;27;43997;-71
2022/04/03 08:20:30;;;;;;;2.00;1.90;;;16.50;62.80;;;;;;5109692;27;45140;-72
2022/04/03 08:23:01;;;;;;;2.30;2.20;;;16.50;63.40;;;;;;5109545;27;43932;-71
2022/04/03 08:25:29;;;;;;;2.10;2.00;;;16.70;63.20;;;;;;5109263;27;44045;-72
2022/04/03 08:27:57;;;;;;;2.00;2.00;;;16.70;62.50;;;;;;5091457;27;43851;-72
2022/04/03 08:30:26;;;;;;;2.30;2.20;;;16.70;62.00;;;;;;5108663;27;43922;-71
2022/04/03 08:32:54;;;;;;;1.90;1.90;;;16.70;61.90;;;;;;5108531;27;43998;-72
2022/04/03 08:35:24;;;;;;;2.13;2.03;;;16.70;62.00;;;;;;5108503;27;43943;-72
2022/04/03 08:37:53;;;;;;;2.20;2.10;;;16.60;62.00;;;;;;5108351;27;43462;-72
2022/04/03 08:40:22;;;;;;;1.90;1.90;;;16.60;62.20;;;;;;5108722;27;43877;-72
2022/04/03 08:42:50;;;;;;;2.00;1.90;;;16.50;62.30;;;;;;5108389;27;43879;-72
2022/04/03 08:45:19;;;;;;;1.67;1.67;;;16.50;62.40;;;;;;5089782;27;43987;-72
2022/04/03 08:47:50;;;;;;;2.00;1.90;;;16.50;62.50;;;;;;5108649;27;43947;-72
2022/04/03 08:50:19;;;;;;;2.10;2.00;;;16.50;62.60;;;;;;5107935;27;43656;-72
2022/04/03 08:52:47;;;;;;;1.87;1.87;;;16.40;62.50;;;;;;5109063;27;43892;-71
2022/04/03 08:55:17;;;;;;;1.90;1.90;;;16.40;62.60;;;;;;5111473;27;43816;-72
2022/04/03 08:57:50;;;;;;;1.90;1.80;;;16.40;62.60;;;;;;5111829;27;43896;-71
2022/04/03 09:00:18;;;;;;;2.20;2.10;;;16.40;63.20;;;;;;5092683;27;46018;-73
2022/04/03 09:02:47;;;;;;;1.90;1.90;;;16.50;63.40;;;;;;5110689;27;43912;-72
2022/04/03 09:05:15;;;;;;;1.77;1.77;;;16.60;63.20;;;;;;5092575;27;44018;-72
2022/04/03 09:07:43;;;;;;;2.10;1.93;;;16.90;62.80;;;;;;5111505;27;43920;-72
2022/04/03 09:10:13;;;;;;;2.00;2.00;;;17.00;62.10;;;;;;5111077;27;44019;-73
2022/04/03 09:12:46;;;;;;;1.90;1.80;;;17.10;61.90;;;;;;5110774;27;44057;-72
2022/04/03 09:15:14;;;;;;;1.70;1.70;;;17.00;61.20;;;;;;5092073;27;43974;-71
2022/04/03 09:17:44;;;;;;;2.00;1.90;;;16.90;61.10;;;;;;5111412;27;43841;-72
2022/04/03 09:20:13;;;;;;;1.80;1.80;;;16.90;61.30;;;;;;5097305;27;43908;-72
2022/04/03 09:22:42;;;;;;;2.20;2.10;;;16.80;61.50;;;;;;5097889;27;43947;-72
2022/04/03 09:25:11;;;;;;;1.60;1.60;;;16.70;61.70;;;;;;5079870;27;43961;-72
2022/04/03 09:27:48;;;;;;;1.80;1.80;;;16.60;61.80;;;;;;5080176;27;43550;-72
2022/04/03 09:30:16;;;;;;;1.60;1.60;;;16.60;62.00;;;;;;5110920;27;43929;-72
2022/04/03 09:32:48;;;;;;;1.90;1.90;;;16.60;62.20;;;;;;5110971;27;43925;-72
2022/04/03 09:35:16;;;;;;;1.53;1.50;;;16.50;62.10;;;;;;5111306;27;43414;-71
2022/04/03 09:38:09;;;;;;;1.90;1.83;;;16.50;62.20;;;;;;5092383;27;43488;-73
2022/04/03 09:40:38;;;;;;;1.70;1.70;;;16.50;62.60;;;;;;5093040;27;45914;-72
2022/04/03 09:43:18;;;;;;;1.70;1.70;;;16.50;63.30;;;;;;5110992;27;43915;-71
2022/04/03 09:45:47;;;;;;;1.67;1.67;;;16.60;63.00;;;;;;5086617;27;43893;-72
2022/04/03 09:48:23;;;;;;;1.50;1.50;;;16.70;62.20;;;;;;5092503;27;44166;-72
2022/04/03 09:50:59;;;;;;;1.63;1.63;;;16.70;61.70;;;;;;5110882;27;44016;-73
2022/04/03 09:53:27;;;;;;;1.53;1.53;;;16.70;61.70;;;;;;5111158;27;43649;-72
2022/04/03 09:55:55;;;;;;;1.70;1.70;;;16.60;61.80;;;;;;5088349;28;44049;-72
2022/04/03 09:58:25;;;;;;;1.70;1.70;;;16.60;61.90;;;;;;5090991;28;43971;-72
2022/04/03 10:00:53;;;;;;;1.60;1.60;;;16.60;62.00;;;;;;5089136;28;45747;-72
2022/04/03 10:03:21;;;;;;;1.60;1.60;;;16.60;62.20;;;;;;5090515;27;43891;-72
2022/04/03 10:05:49;;;;;;;1.40;1.30;;;16.50;62.20;;;;;;5090501;28;43883;-72
2022/04/03 10:08:17;;;;;;;1.77;1.67;;;16.50;62.20;;;;;;5090223;28;43948;-71
2022/04/03 10:10:47;;;;;;;1.73;1.73;;;16.50;62.30;;;;;;5088780;28;45437;-72
2022/04/03 10:13:15;;;;;;;1.40;1.40;;;16.40;62.30;;;;;;5090400;27;44089;-72
2022/04/03 10:15:45;;;;;;;1.50;1.50;;;16.40;62.30;;;;;;5090551;28;43901;-72
2022/04/03 10:18:14;;;;;;;1.50;1.50;;;16.40;62.30;;;;;;5090367;28;43937;-71
2022/04/03 10:20:42;;;;;;;1.30;1.30;;;16.40;62.70;;;;;;5090363;28;44072;-72
2022/04/03 10:23:12;;;;;;;1.70;1.60;;;16.50;63.20;;;;;;5089967;28;43970;-72
2022/04/03 10:25:42;;;;;;;1.70;1.70;;;16.60;63.00;;;;;;5088626;28;44481;-72
2022/04/03 10:28:10;;;;;;;1.50;1.50;;;16.80;62.60;;;;;;5088637;28;43964;-71
2022/04/03 10:30:38;;;;;;;1.50;1.50;;;16.90;62.10;;;;;;5089671;28;43903;-72
2022/04/03 10:33:09;;;;;;;1.43;1.43;;;17.00;61.80;;;;;;5088044;28;44854;-72
2022/04/03 10:35:37;;;;;;;1.30;1.30;;;17.00;61.20;;;;;;5089675;28;43880;-72
2022/04/03 10:38:05;;;;;;;1.40;1.40;;;16.90;60.90;;;;;;5089839;28;43512;-73
2022/04/03 10:40:34;;;;;;;1.50;1.50;;;16.90;61.20;;;;;;5089894;28;43762;-71
2022/04/03 10:43:03;;;;;;;1.43;1.43;;;16.80;61.40;;;;;;5089924;28;43869;-73
2022/04/03 10:45:32;;;;;;;1.40;1.40;;;16.70;61.50;;;;;;5089822;28;43990;-72
2022/04/03 10:48:27;;;;;;;1.30;1.30;;;16.60;61.70;;;;;;5089794;28;43992;-72
2022/04/03 10:51:07;;;;;;;1.23;1.23;;;16.60;61.90;;;;;;5090031;28;45143;-72
2022/04/03 10:53:36;;;;;;;1.20;1.20;;;16.60;62.00;;;;;;5089794;28;43997;-72
2022/04/03 10:56:07;;;;;;;1.40;1.40;;;16.50;62.00;;;;;;5103896;27;43864;-72
2022/04/03 10:58:40;;;;;;;1.10;1.10;;;16.50;62.10;;;;;;5091856;27;43494;-72
2022/04/03 11:01:11;;;;;;;1.33;1.33;;;16.50;62.40;;;;;;5109994;27;43722;-72
2022/04/03 11:03:41;;;;;;;1.30;1.30;;;16.50;63.20;;;;;;5109591;27;43958;-71
2022/04/03 11:06:35;;;;;;;1.27;1.27;;;16.60;63.10;;;;;;5090617;27;44010;-71
2022/04/03 11:09:13;;;;;;;1.20;1.20;;;16.70;62.20;;;;;;5091656;27;43552;-72
2022/04/03 11:11:49;;;;;;;1.23;1.23;;;16.70;61.80;;;;;;5109244;27;43985;-72
2022/04/03 11:14:55;;;;;;;1.33;1.33;;;16.70;61.70;;;;;;5110027;27;43454;-72
2022/04/03 11:17:48;;;;;;;1.10;1.10;;;16.60;61.70;;;;;;5109537;27;43999;-72
2022/04/03 11:20:39;;;;;;;1.23;1.23;;;16.60;61.90;;;;;;5109869;27;43486;-71
2022/04/03 11:23:08;;;;;;;1.33;1.33;;;16.60;62.20;;;;;;5109582;27;43608;-71
2022/04/03 11:25:36;;;;;;;1.00;1.00;;;16.60;62.30;;;;;;5109382;27;43919;-72
2022/04/03 11:28:05;;;;;;;1.30;1.30;;;16.50;62.20;;;;;;5109707;27;44073;-72
2022/04/03 11:30:33;;;;;;;1.30;1.30;;;16.50;62.40;;;;;;5110037;27;43887;-72
2022/04/03 11:33:01;;;;;;;1.10;1.10;;;16.50;62.40;;;;;;5090058;27;45732;-71
2022/04/03 11:35:33;;;;;;;1.30;1.30;;;16.50;62.40;;;;;;5108687;27;44001;-72
2022/04/03 11:38:03;;;;;;;1.20;1.20;;;16.50;62.40;;;;;;5090424;27;44015;-73
2022/04/03 11:40:31;;;;;;;1.30;1.30;;;16.50;62.70;;;;;;5109666;27;43965;-72
2022/04/03 11:43:18;;;;;;;1.30;1.30;;;16.50;63.10;;;;;;5108786;27;44105;-72
2022/04/03 11:45:55;;;;;;;1.20;1.20;;;16.60;63.10;;;;;;5108591;27;44014;-72
2022/04/03 11:48:24;;;;;;;1.10;1.10;;;16.80;62.60;;;;;;5108803;27;43982;-71
2022/04/03 11:51:06;;;;;;;1.27;1.27;;;16.90;62.20;;;;;;5109274;27;43468;-72
2022/04/03 11:53:36;;;;;;;1.23;1.23;;;17.00;61.50;;;;;;5108882;27;43943;-72
2022/04/03 11:56:09;;;;;;;1.20;1.20;;;17.00;61.90;;;;;;5108233;27;44006;-72
2022/04/03 11:58:41;;;;;;;1.23;1.23;;;16.90;61.20;;;;;;5108892;27;43875;-72
2022/04/03 12:01:10;;;;;;;1.20;1.20;;;16.80;61.40;;;;;;5109030;27;43377;-72
2022/04/03 12:03:38;;;;;;;1.20;1.20;;;16.80;61.60;;;;;;5108442;27;43958;-72
2022/04/03 12:06:16;;;;;;;1.10;1.10;;;16.70;61.80;;;;;;5108648;27;43440;-72
2022/04/03 12:08:50;;;;;;;1.10;1.10;;;16.60;61.80;;;;;;5089749;27;43943;-71
2022/04/03 12:11:19;;;;;;;1.07;1.07;;;16.60;62.00;;;;;;5090076;27;44043;-71
2022/04/03 12:13:47;;;;;;;1.03;1.03;;;16.60;62.20;;;;;;5108146;27;43995;-72
2022/04/03 12:16:18;;;;;;;1.10;1.10;;;16.60;62.20;;;;;;5108560;27;44080;-72
2022/04/03 12:18:54;;;;;;;1.00;1.00;;;16.60;62.30;;;;;;5108272;27;43987;-71
2022/04/03 12:21:22;;;;;;;1.00;1.00;;;16.50;62.70;;;;;;5108603;27;44193;-71
2022/04/03 12:24:05;;;;;;;1.10;1.10;;;16.60;63.30;;;;;;5107889;27;43591;-71
2022/04/03 12:26:40;;;;;;;1.10;1.10;;;16.70;63.00;;;;;;5107936;27;43997;-72
2022/04/03 12:29:08;;;;;;;1.20;1.20;;;16.70;62.10;;;;;;5111225;27;43900;-72
2022/04/03 12:31:36;;;;;;;1.00;1.00;;;16.80;61.90;;;;;;5112489;27;43974;-72
2022/04/03 12:34:09;;;;;;;0.90;0.90;;;16.70;61.80;;;;;;5093053;27;46475;-72
2022/04/03 12:36:41;;;;;;;1.00;1.00;;;16.70;61.90;;;;;;5098662;27;43986;-72
2022/04/03 12:39:29;;;;;;;1.10;1.10;;;16.70;62.10;;;;;;5100088;27;44161;-72
2022/04/03 12:41:58;;;;;;;1.20;1.20;;;16.60;62.10;;;;;;5093503;27;44169;-72
2022/04/03 12:44:26;;;;;;;0.90;0.90;;;16.60;62.30;;;;;;5093017;27;46118;-72
2022/04/03 12:46:54;;;;;;;1.10;1.10;;;16.60;62.40;;;;;;5092879;27;44633;-72
2022/04/03 12:49:22;;;;;;;0.97;0.97;;;16.60;62.50;;;;;;5094086;27;43420;-71
2022/04/03 12:51:50;;;;;;;1.03;0.90;;;16.50;62.50;;;;;;5094002;27;43906;-72
2022/04/03 12:54:19;;;;;;;1.40;1.10;;;16.50;62.40;;;;;;5111625;27;43946;-72
2022/04/03 12:59:38;;;;;;;1.83;1.23;;;16.50;62.40;;;;;;5072571;28;43996;-72
2022/04/03 13:02:07;;;;;;;1.37;1.33;;;16.50;62.80;;;;;;5091595;28;43987;-71